createdAt,value
2022-08-19T00:01:32.639Z,97528.06
2022-08-19T00:04:07.941Z,97519.34
2022-08-19T00:06:36.591Z,97511.06
2022-08-19T00:09:05.175Z,97522.25
2022-08-19T00:11:32.237Z,97526.19
2022-08-19T00:14:00.056Z,97519.38
2022-08-19T00:16:27.444Z,97522.13
2022-08-19T00:18:57.632Z,97521.47
2022-08-19T00:21:25.674Z,97527.16
2022-08-19T00:23:53.117Z,97522.72
2022-08-19T00:26:20.223Z,97514.00
2022-08-19T00:28:48.259Z,97511.13
2022-08-19T00:31:15.150Z,97509.28
2022-08-19T00:33:42.645Z,97511.94
2022-08-19T00:36:10.706Z,97512.84
2022-08-19T00:38:39.427Z,97515.09
2022-08-19T00:41:07.372Z,97508.09
2022-08-19T00:43:34.670Z,97502.91
2022-08-19T00:46:05.877Z,97496.25
2022-08-19T00:48:33.640Z,97492.41
2022-08-19T00:51:01.351Z,97484.13
2022-08-19T00:53:30.530Z,97478.44
2022-08-19T00:55:59.857Z,97471.31
2022-08-19T00:58:30.546Z,97472.91
2022-08-19T01:00:57.449Z,97472.56
2022-08-19T01:03:24.530Z,97471.75
2022-08-19T01:05:53.292Z,97469.91
2022-08-19T01:08:21.338Z,97473.78
2022-08-19T01:10:56.858Z,97477.00
2022-08-19T01:13:49.517Z,97479.84
2022-08-19T01:16:18.992Z,97479.13
2022-08-19T01:18:46.005Z,97469.09
2022-08-19T01:21:36.361Z,97466.62
2022-08-19T01:24:03.437Z,97453.00
2022-08-19T01:26:31.191Z,97459.00
2022-08-19T01:29:00.788Z,97467.06
2022-08-19T01:31:33.086Z,97459.25
2022-08-19T01:34:01.655Z,97460.88
2022-08-19T01:36:34.048Z,97473.25
2022-08-19T01:39:02.904Z,97469.50
2022-08-19T01:41:29.861Z,97471.84
2022-08-19T01:44:09.925Z,97468.50
2022-08-19T01:46:45.548Z,97462.81
2022-08-19T01:49:12.627Z,97462.44
2022-08-19T01:51:40.407Z,97470.00
2022-08-19T01:54:09.606Z,97478.59
2022-08-19T01:56:36.783Z,97478.75
2022-08-19T01:59:06.946Z,97475.44
2022-08-19T02:01:35.845Z,97479.41
2022-08-19T02:04:03.484Z,97481.47
2022-08-19T02:06:30.954Z,97478.50
2022-08-19T02:08:58.608Z,97474.00
2022-08-19T02:11:32.738Z,97485.56
2022-08-19T02:14:01.244Z,97486.22
2022-08-19T02:16:28.265Z,97481.22
2022-08-19T02:18:55.905Z,97479.63
2022-08-19T02:21:24.677Z,97475.00
2022-08-19T02:23:51.864Z,97475.66
2022-08-19T02:26:19.990Z,97475.69
2022-08-19T02:28:47.266Z,97484.94
2022-08-19T02:31:19.186Z,97477.41
2022-08-19T02:33:46.710Z,97485.31
2022-08-19T02:36:15.518Z,97486.44
2022-08-19T02:38:47.152Z,97496.09
2022-08-19T02:41:25.096Z,97492.47
2022-08-19T02:44:23.012Z,97490.88
2022-08-19T02:46:42.331Z,97489.25
2022-08-19T02:49:09.607Z,97491.72
2022-08-19T02:51:39.819Z,97490.97
2022-08-19T02:54:10.021Z,97492.87
2022-08-19T02:56:38.510Z,97497.97
2022-08-19T02:59:11.133Z,97506.56
2022-08-19T03:01:41.792Z,97505.34
2022-08-19T03:04:11.250Z,97493.84
2022-08-19T03:06:39.592Z,97498.28
2022-08-19T03:09:06.628Z,97492.22
2022-08-19T03:11:34.328Z,97494.25
2022-08-19T03:14:02.066Z,97487.75
2022-08-19T03:16:33.566Z,97468.53
2022-08-19T03:19:02.003Z,97472.19
2022-08-19T03:21:31.518Z,97479.75
2022-08-19T03:24:00.770Z,97470.50
2022-08-19T03:26:27.936Z,97476.69
2022-08-19T03:28:58.544Z,97479.34
2022-08-19T03:31:41.600Z,97484.47
2022-08-19T03:34:19.477Z,97493.34
2022-08-19T03:36:47.327Z,97493.47
2022-08-19T03:39:14.337Z,97486.88
2022-08-19T03:41:45.337Z,97487.84
2022-08-19T03:44:19.536Z,97491.91
2022-08-19T03:46:58.564Z,97496.06
2022-08-19T03:49:29.148Z,97498.84
2022-08-19T03:51:57.851Z,97500.53
2022-08-19T03:54:25.730Z,97497.16
2022-08-19T03:56:54.742Z,97494.09
2022-08-19T03:59:29.262Z,97499.50
2022-08-19T04:01:58.162Z,97483.91
2022-08-19T04:04:29.038Z,97488.38
2022-08-19T04:06:56.739Z,97493.00
2022-08-19T04:09:23.669Z,97488.38
2022-08-19T04:11:56.567Z,97479.41
2022-08-19T04:14:31.425Z,97485.28
2022-08-19T04:17:00.263Z,97501.84
2022-08-19T04:19:27.921Z,97506.03
2022-08-19T04:21:55.774Z,97510.66
2022-08-19T04:24:23.673Z,97514.88
2022-08-19T04:26:50.764Z,97507.59
2022-08-19T04:29:28.084Z,97502.38
2022-08-19T04:31:57.050Z,97512.38
2022-08-19T04:34:26.767Z,97516.22
2022-08-19T04:36:56.054Z,97512.31
2022-08-19T04:39:48.326Z,97512.94
2022-08-19T04:42:35.914Z,97508.41
2022-08-19T04:45:04.044Z,97497.62
2022-08-19T04:47:47.698Z,97491.47
2022-08-19T04:50:21.387Z,97488.50
2022-08-19T04:52:48.304Z,97491.41
2022-08-19T04:55:15.663Z,97501.44
2022-08-19T04:57:42.766Z,97500.97
2022-08-19T05:00:10.875Z,97489.97
2022-08-19T05:02:39.053Z,97485.19
2022-08-19T05:05:07.750Z,97488.25
2022-08-19T05:07:34.981Z,97492.22
2022-08-19T05:10:02.163Z,97489.94
2022-08-19T05:12:29.996Z,97498.84
2022-08-19T05:14:58.643Z,97498.06
2022-08-19T05:17:29.009Z,97491.38
2022-08-19T05:20:16.246Z,97493.13
2022-08-19T05:22:45.125Z,97497.41
2022-08-19T05:25:15.747Z,97499.22
2022-08-19T05:27:43.290Z,97500.59
2022-08-19T05:30:11.659Z,97511.50
2022-08-19T05:32:39.842Z,97506.50
2022-08-19T05:35:07.332Z,97511.16
2022-08-19T05:37:34.284Z,97512.19
2022-08-19T05:40:01.377Z,97521.69
2022-08-19T05:42:28.331Z,97525.94
2022-08-19T05:44:55.285Z,97527.66
2022-08-19T05:47:22.424Z,97535.69
2022-08-19T05:49:51.073Z,97543.62
2022-08-19T05:52:18.975Z,97554.47
2022-08-19T05:54:51.276Z,97561.50
2022-08-19T05:57:19.914Z,97554.94
2022-08-19T05:59:52.862Z,97556.09
2022-08-19T06:02:24.930Z,97558.22
2022-08-19T06:04:51.872Z,97570.56
2022-08-19T06:07:18.810Z,97574.91
2022-08-19T06:09:59.705Z,97563.94
2022-08-19T06:12:34.198Z,97570.34
2022-08-19T06:15:03.298Z,97573.78
2022-08-19T06:17:31.949Z,97576.25
2022-08-19T06:19:59.776Z,97566.81
2022-08-19T06:22:27.978Z,97555.00
2022-08-19T06:24:56.465Z,97558.66
2022-08-19T06:27:23.607Z,97553.72
2022-08-19T06:29:50.879Z,97556.66
2022-08-19T06:32:19.785Z,97557.72
2022-08-19T06:34:46.907Z,97567.53
2022-08-19T06:37:14.360Z,97568.41
2022-08-19T06:39:45.595Z,97571.16
2022-08-19T06:42:17.823Z,97569.91
2022-08-19T06:44:48.903Z,97576.06
2022-08-19T06:47:23.195Z,97580.34
2022-08-19T06:49:53.574Z,97582.69
2022-08-19T06:52:21.041Z,97571.69
2022-08-19T06:54:56.152Z,97579.16
2022-08-19T06:57:27.016Z,97584.53
2022-08-19T06:59:54.119Z,97583.72
2022-08-19T07:02:21.851Z,97583.53
2022-08-19T07:04:52.857Z,97589.12
2022-08-19T07:07:21.742Z,97597.09
2022-08-19T07:09:51.829Z,97598.94
2022-08-19T07:12:29.665Z,97598.59
2022-08-19T07:14:59.073Z,97588.09
2022-08-19T07:17:26.787Z,97581.97
2022-08-19T07:19:54.762Z,97571.47
2022-08-19T07:22:23.866Z,97568.44
2022-08-19T07:24:54.676Z,97560.56
2022-08-19T07:27:24.311Z,97566.66
2022-08-19T07:29:56.005Z,97567.63
2022-08-19T07:32:27.774Z,97563.41
2022-08-19T07:34:56.396Z,97560.78
2022-08-19T07:37:27.363Z,97547.59
2022-08-19T07:39:56.596Z,97545.06
2022-08-19T07:42:23.762Z,97547.91
2022-08-19T07:44:51.167Z,97556.81
2022-08-19T07:47:49.207Z,97562.50
2022-08-19T07:50:08.922Z,97557.09
2022-08-19T07:52:37.346Z,97565.66
2022-08-19T07:55:06.012Z,97562.56
2022-08-19T07:57:33.056Z,97561.13
2022-08-19T08:00:00.336Z,97569.72
2022-08-19T08:02:39.746Z,97558.84
2022-08-19T08:05:28.646Z,97570.63
2022-08-19T08:08:14.621Z,97565.81
2022-08-19T08:10:41.719Z,97563.19
2022-08-19T08:13:11.172Z,97558.56
2022-08-19T08:15:42.985Z,97546.84
2022-08-19T08:18:14.578Z,97541.81
2022-08-19T08:20:41.681Z,97552.75
2022-08-19T08:23:23.935Z,97555.00
2022-08-19T08:25:51.146Z,97557.38
2022-08-19T08:28:20.694Z,97567.81
2022-08-19T08:30:50.886Z,97570.41
2022-08-19T08:33:34.331Z,97565.25
2022-08-19T08:36:12.035Z,97561.66
2022-08-19T08:38:40.857Z,97578.34
2022-08-19T08:41:32.861Z,97568.38
2022-08-19T08:44:00.261Z,97563.41
2022-08-19T08:46:37.363Z,97553.41
2022-08-19T08:49:29.439Z,97548.31
2022-08-19T08:52:05.909Z,97556.56
2022-08-19T08:54:54.666Z,97553.75
2022-08-19T08:57:40.794Z,97553.59
2022-08-19T09:00:17.680Z,97557.94
2022-08-19T09:02:50.916Z,97552.91
2022-08-19T09:05:22.177Z,97554.91
2022-08-19T09:08:06.845Z,97554.03
2022-08-19T09:10:44.245Z,97563.44
2022-08-19T09:13:37.633Z,97560.31
2022-08-19T09:16:14.195Z,97556.56
2022-08-19T09:18:48.269Z,97560.00
2022-08-19T09:21:16.493Z,97553.16
2022-08-19T09:23:44.908Z,97541.56
2022-08-19T09:26:16.575Z,97554.19
2022-08-19T09:28:45.575Z,97559.31
2022-08-19T09:31:19.110Z,97558.06
2022-08-19T09:33:46.973Z,97560.38
2022-08-19T09:36:24.348Z,97572.03
2022-08-19T09:39:02.264Z,97566.31
2022-08-19T09:41:29.783Z,97572.94
2022-08-19T09:43:58.385Z,97573.44
2022-08-19T09:46:28.885Z,97563.19
2022-08-19T09:49:02.952Z,97555.69
2022-08-19T09:51:35.044Z,97555.31
2022-08-19T09:54:05.628Z,97563.53
2022-08-19T09:56:34.115Z,97563.38
2022-08-19T09:59:02.370Z,97557.81
2022-08-19T10:01:31.384Z,97566.75
2022-08-19T10:03:59.841Z,97565.88
2022-08-19T10:06:45.901Z,97570.88
2022-08-19T10:09:15.532Z,97575.19
2022-08-19T10:11:52.580Z,97562.78
2022-08-19T10:14:23.644Z,97572.13
2022-08-19T10:16:51.886Z,97581.78
2022-08-19T10:19:25.305Z,97582.47
2022-08-19T10:21:53.821Z,97581.69
2022-08-19T10:24:21.993Z,97578.75
2022-08-19T10:26:57.227Z,97583.06
2022-08-19T10:29:33.001Z,97585.03
2022-08-19T10:32:09.653Z,97592.84
2022-08-19T10:34:48.710Z,97588.25
2022-08-19T10:37:23.507Z,97600.97
2022-08-19T10:39:51.420Z,97596.09
2022-08-19T10:42:19.747Z,97598.38
2022-08-19T10:44:47.832Z,97609.22
2022-08-19T10:47:17.206Z,97602.63
2022-08-19T10:50:11.781Z,97604.00
2022-08-19T10:52:49.629Z,97600.41
2022-08-19T10:55:37.696Z,97591.78
2022-08-19T10:58:05.012Z,97592.44
2022-08-19T11:00:32.652Z,97591.16
2022-08-19T11:02:59.684Z,97588.91
2022-08-19T11:05:26.602Z,97594.38
2022-08-19T11:07:53.782Z,97597.31
2022-08-19T11:10:22.056Z,97608.50
2022-08-19T11:12:49.981Z,97612.22
2022-08-19T11:15:17.155Z,97627.19
2022-08-19T11:17:44.901Z,97635.88
2022-08-19T11:20:15.644Z,97628.13
2022-08-19T11:22:43.385Z,97636.91
2022-08-19T11:25:12.072Z,97648.22
2022-08-19T11:27:42.895Z,97666.16
2022-08-19T11:30:13.280Z,97681.44
2022-08-19T11:32:44.688Z,97692.03
2022-08-19T11:35:15.624Z,97706.84
2022-08-19T11:37:42.641Z,97703.47
2022-08-19T11:40:10.433Z,97714.50
2022-08-19T11:42:56.030Z,97713.00
2022-08-19T11:45:24.209Z,97708.63
2022-08-19T11:47:51.172Z,97719.91
2022-08-19T11:50:18.945Z,97712.84
2022-08-19T11:52:46.294Z,97707.72
2022-08-19T11:55:14.741Z,97693.81
2022-08-19T11:57:44.860Z,97672.69
2022-08-19T12:00:14.048Z,97664.59
2022-08-19T12:02:41.588Z,97690.31
2022-08-19T12:05:12.256Z,97694.66
2022-08-19T12:07:40.853Z,97712.13
2022-08-19T12:10:08.715Z,97713.84
2022-08-19T12:12:36.147Z,97713.41
2022-08-19T12:15:03.604Z,97699.13
2022-08-19T12:17:31.969Z,97697.50
2022-08-19T12:19:59.012Z,97686.22
2022-08-19T12:22:25.937Z,97697.19
2022-08-19T12:24:54.360Z,97679.13
2022-08-19T12:27:32.030Z,97684.59
2022-08-19T12:30:09.168Z,97690.47
2022-08-19T12:32:36.159Z,97703.44
2022-08-19T12:35:03.958Z,97706.25
2022-08-19T12:37:32.829Z,97718.34
2022-08-19T12:40:00.498Z,97735.13
2022-08-19T12:42:27.603Z,97742.00
2022-08-19T12:44:54.746Z,97741.38
2022-08-19T12:47:22.218Z,97724.81
2022-08-19T12:49:54.671Z,97739.78
2022-08-19T12:52:24.871Z,97741.00
2022-08-19T12:54:54.086Z,97737.16
2022-08-19T12:57:32.027Z,97728.31
2022-08-19T13:00:16.455Z,97711.09
2022-08-19T13:02:55.117Z,97712.94
2022-08-19T13:05:25.633Z,97708.00
2022-08-19T13:07:57.017Z,97705.53
2022-08-19T13:10:28.909Z,97706.16
2022-08-19T13:12:56.096Z,97687.09
2022-08-19T13:15:24.694Z,97680.72
2022-08-19T13:17:53.726Z,97658.78
2022-08-19T13:20:22.281Z,97646.72
2022-08-19T13:22:49.956Z,97651.41
2022-08-19T13:25:37.959Z,97686.72
2022-08-19T13:28:08.215Z,97651.38
2022-08-19T13:30:58.240Z,97624.97
2022-08-19T13:33:26.838Z,97615.00
2022-08-19T13:35:59.080Z,97591.25
2022-08-19T13:38:26.028Z,97603.25
2022-08-19T13:40:56.937Z,97614.34
2022-08-19T13:43:26.834Z,97612.41
2022-08-19T13:45:57.611Z,97607.78
2022-08-19T13:48:28.148Z,97609.38
2022-08-19T13:50:55.451Z,97592.28
2022-08-19T13:53:22.671Z,97578.50
2022-08-19T13:55:51.575Z,97580.66
2022-08-19T13:58:18.489Z,97558.19
2022-08-19T14:00:46.896Z,97554.22
2022-08-19T14:03:14.080Z,97551.59
2022-08-19T14:05:41.287Z,97569.00
2022-08-19T14:08:08.339Z,97567.56
2022-08-19T14:10:35.295Z,97560.56
2022-08-19T14:13:04.197Z,97554.75
2022-08-19T14:15:31.754Z,97556.06
2022-08-19T14:17:58.803Z,97541.91
2022-08-19T14:20:26.470Z,97554.44
2022-08-19T14:22:54.170Z,97538.13
2022-08-19T14:25:24.538Z,97508.50
2022-08-19T14:27:51.590Z,97504.59
2022-08-19T14:30:22.536Z,97495.22
2022-08-19T14:32:49.483Z,97474.69
2022-08-19T14:35:17.193Z,97469.59
2022-08-19T14:37:46.325Z,97463.13
2022-08-19T14:40:18.539Z,97461.03
2022-08-19T14:42:45.553Z,97474.34
2022-08-19T14:45:13.501Z,97484.63
2022-08-19T14:47:40.793Z,97481.78
2022-08-19T14:50:10.464Z,97494.09
2022-08-19T14:52:42.172Z,97510.50
2022-08-19T14:55:09.630Z,97525.16
2022-08-19T14:57:36.668Z,97542.13
2022-08-19T15:00:05.099Z,97546.09
2022-08-19T15:02:34.438Z,97565.56
2022-08-19T15:05:02.912Z,97570.84
2022-08-19T15:07:30.463Z,97558.16
2022-08-19T15:09:57.959Z,97561.91
2022-08-19T15:12:25.093Z,97577.00
2022-08-19T15:14:55.784Z,97573.94
2022-08-19T15:17:35.345Z,97561.69
2022-08-19T15:20:11.095Z,97521.91
2022-08-19T15:22:38.458Z,97524.22
2022-08-19T15:25:07.239Z,97536.28
2022-08-19T15:27:34.206Z,97531.56
2022-08-19T15:30:01.785Z,97533.34
2022-08-19T15:32:29.273Z,97530.97
2022-08-19T15:34:56.363Z,97527.41
2022-08-19T15:37:24.170Z,97515.16
2022-08-19T15:39:51.858Z,97501.44
2022-08-19T15:42:30.111Z,97492.44
2022-08-19T15:45:00.618Z,97478.25
2022-08-19T15:47:34.715Z,97470.06
2022-08-19T15:50:17.175Z,97467.16
2022-08-19T15:52:59.155Z,97453.47
2022-08-19T15:55:33.772Z,97453.72
2022-08-19T15:58:28.335Z,97444.38
2022-08-19T16:01:20.627Z,97444.56
2022-08-19T16:04:14.300Z,97437.66
2022-08-19T16:06:45.993Z,97449.38
2022-08-19T16:09:13.389Z,97438.53
2022-08-19T16:11:45.508Z,97433.63
2022-08-19T16:14:14.401Z,97421.94
2022-08-19T16:16:41.444Z,97428.88
2022-08-19T16:19:10.396Z,97422.72
2022-08-19T16:21:41.630Z,97426.59
2022-08-19T16:24:12.177Z,97422.22
2022-08-19T16:26:40.333Z,97430.97
2022-08-19T16:29:12.967Z,97439.50
2022-08-19T16:31:42.483Z,97434.31
2022-08-19T16:34:09.777Z,97438.56
2022-08-19T16:36:37.179Z,97431.97
2022-08-19T16:39:04.145Z,97432.78
2022-08-19T16:41:31.142Z,97428.28
2022-08-19T16:43:58.036Z,97436.25
2022-08-19T16:46:27.105Z,97439.22
2022-08-19T16:48:54.751Z,97452.59
2022-08-19T16:51:23.088Z,97456.44
2022-08-19T16:53:53.149Z,97472.06
2022-08-19T16:56:21.580Z,97471.75
2022-08-19T16:58:50.657Z,97474.81
2022-08-19T17:01:18.639Z,97494.56
2022-08-19T17:03:46.175Z,97484.72
2022-08-19T17:06:20.879Z,97476.13
2022-08-19T17:08:49.849Z,97473.84
2022-08-19T17:11:18.840Z,97459.16
2022-08-19T17:13:47.921Z,97470.06
2022-08-19T17:16:16.377Z,97474.94
2022-08-19T17:18:43.381Z,97468.63
2022-08-19T17:21:10.369Z,97474.56
2022-08-19T17:23:43.529Z,97478.09
2022-08-19T17:26:18.447Z,97492.75
2022-08-19T17:28:49.252Z,97505.66
2022-08-19T17:31:16.775Z,97506.06
2022-08-19T17:33:48.043Z,97513.72
2022-08-19T17:36:18.817Z,97503.03
2022-08-19T17:38:45.922Z,97516.75
2022-08-19T17:41:12.839Z,97516.28
2022-08-19T17:43:43.291Z,97519.97
2022-08-19T17:46:20.590Z,97526.41
2022-08-19T17:48:54.787Z,97533.56
2022-08-19T17:51:23.725Z,97524.03
2022-08-19T17:53:53.139Z,97528.00
2022-08-19T17:56:20.567Z,97517.19
2022-08-19T17:58:51.152Z,97528.38
2022-08-19T18:01:26.758Z,97504.56
2022-08-19T18:03:57.088Z,97515.34
2022-08-19T18:06:24.106Z,97537.69
2022-08-19T18:08:51.157Z,97547.50
2022-08-19T18:11:18.074Z,97566.06
2022-08-19T18:13:45.137Z,97581.41
2022-08-19T18:16:12.584Z,97567.78
2022-08-19T18:18:41.107Z,97574.94
2022-08-19T18:21:08.629Z,97569.25
2022-08-19T18:23:44.405Z,97574.69
2022-08-19T18:26:13.103Z,97575.72
2022-08-19T18:28:49.976Z,97577.53
2022-08-19T18:31:17.816Z,97580.47
2022-08-19T18:33:45.510Z,97583.38
2022-08-19T18:36:12.447Z,97566.56
2022-08-19T18:38:58.040Z,97571.19
2022-08-19T18:41:44.880Z,97570.28
2022-08-19T18:44:44.004Z,97578.09
2022-08-19T18:47:29.710Z,97594.09
2022-08-19T18:49:56.714Z,97593.63
2022-08-19T18:52:25.727Z,97586.13
2022-08-19T18:54:52.866Z,97598.84
2022-08-19T18:57:24.989Z,97600.91
2022-08-19T18:59:53.914Z,97594.97
2022-08-19T19:02:22.515Z,97597.22
2022-08-19T19:04:49.817Z,97606.94
2022-08-19T19:07:18.572Z,97597.28
2022-08-19T19:09:50.572Z,97599.38
2022-08-19T19:12:18.485Z,97607.22
2022-08-19T19:14:49.557Z,97616.34
2022-08-19T19:17:17.246Z,97613.16
2022-08-19T19:19:44.339Z,97609.56
2022-08-19T19:22:13.924Z,97605.28
2022-08-19T19:24:44.743Z,97622.66
2022-08-19T19:27:13.234Z,97617.50
2022-08-19T19:29:41.628Z,97628.22
2022-08-19T19:32:17.069Z,97630.31
2022-08-19T19:34:44.187Z,97636.97
2022-08-19T19:37:11.101Z,97653.22
2022-08-19T19:39:46.333Z,97657.31
2022-08-19T19:42:20.682Z,97662.28
2022-08-19T19:44:50.949Z,97668.78
2022-08-19T19:47:19.147Z,97663.31
2022-08-19T19:50:12.805Z,97666.75
2022-08-19T19:52:34.736Z,97673.84
2022-08-19T19:55:01.697Z,97676.84
2022-08-19T19:57:30.535Z,97686.66
2022-08-19T19:59:58.445Z,97685.84
2022-08-19T20:02:25.420Z,97680.88
2022-08-19T20:04:53.093Z,97689.34
2022-08-19T20:07:39.962Z,97678.97
2022-08-19T20:10:07.145Z,97688.72
2022-08-19T20:12:35.134Z,97689.69
2022-08-19T20:15:02.432Z,97685.50
2022-08-19T20:17:29.375Z,97683.19
2022-08-19T20:19:57.657Z,97693.44
2022-08-19T20:22:25.973Z,97692.16
2022-08-19T20:24:55.777Z,97698.97
2022-08-19T20:27:25.807Z,97701.38
2022-08-19T20:29:56.181Z,97714.34
2022-08-19T20:32:23.669Z,97716.97
2022-08-19T20:34:50.821Z,97725.69
2022-08-19T20:37:17.763Z,97726.78
2022-08-19T20:39:44.812Z,97731.88
2022-08-19T20:42:11.770Z,97727.47
2022-08-19T20:44:38.677Z,97730.75
2022-08-19T20:47:05.800Z,97729.66
2022-08-19T20:49:32.832Z,97734.81
2022-08-19T20:52:00.465Z,97748.81
2022-08-19T20:54:27.796Z,97747.34
2022-08-19T20:56:55.028Z,97736.78
2022-08-19T20:59:23.093Z,97728.06
2022-08-19T21:01:52.004Z,97714.03
2022-08-19T21:04:20.490Z,97715.13
2022-08-19T21:06:48.148Z,97704.22
2022-08-19T21:09:15.466Z,97713.69
2022-08-19T21:11:42.440Z,97720.72
2022-08-19T21:14:09.365Z,97701.69
2022-08-19T21:16:36.316Z,97699.81
2022-08-19T21:19:04.703Z,97693.69
2022-08-19T21:21:33.229Z,97686.16
2022-08-19T21:24:00.252Z,97686.78
2022-08-19T21:26:27.449Z,97686.38
2022-08-19T21:28:54.338Z,97699.09
2022-08-19T21:31:21.324Z,97697.81
2022-08-19T21:33:48.265Z,97692.81
2022-08-19T21:36:15.209Z,97706.03
2022-08-19T21:38:42.274Z,97697.03
2022-08-19T21:41:09.211Z,97695.16
2022-08-19T21:43:37.594Z,97693.56
2022-08-19T21:46:05.302Z,97689.25
2022-08-19T21:48:33.027Z,97684.03
2022-08-19T21:50:59.962Z,97676.44
2022-08-19T21:53:34.329Z,97663.56
2022-08-19T21:56:02.553Z,97667.28
2022-08-19T21:58:30.525Z,97657.16
2022-08-19T22:00:59.391Z,97660.31
2022-08-19T22:03:26.965Z,97655.06
2022-08-19T22:05:53.937Z,97638.72
2022-08-19T22:08:20.893Z,97638.03
2022-08-19T22:10:49.922Z,97640.59
2022-08-19T22:13:18.445Z,97635.97
2022-08-19T22:15:50.549Z,97635.44
2022-08-19T22:18:17.913Z,97633.53
2022-08-19T22:20:45.533Z,97622.84
2022-08-19T22:23:12.472Z,97611.06
2022-08-19T22:25:41.641Z,97614.59
2022-08-19T22:28:13.449Z,97623.87
2022-08-19T22:30:43.124Z,97613.50
2022-08-19T22:33:13.175Z,97606.53
2022-08-19T22:35:41.506Z,97602.06
2022-08-19T22:38:10.369Z,97612.28
2022-08-19T22:40:39.809Z,97602.28
2022-08-19T22:43:22.499Z,97604.25
2022-08-19T22:45:50.565Z,97608.25
2022-08-19T22:48:20.037Z,97609.41
2022-08-19T22:51:08.316Z,97605.81
2022-08-19T22:53:37.328Z,97615.03
2022-08-19T22:56:13.172Z,97624.06
2022-08-19T22:58:42.591Z,97633.72
2022-08-19T23:01:10.964Z,97629.16
2022-08-19T23:03:40.189Z,97621.22
2022-08-19T23:06:07.508Z,97623.03
2022-08-19T23:08:37.595Z,97620.41
2022-08-19T23:11:05.011Z,97626.38
2022-08-19T23:13:32.304Z,97641.62
2022-08-19T23:15:59.632Z,97651.25
2022-08-19T23:18:26.964Z,97650.78
2022-08-19T23:20:54.651Z,97641.38
2022-08-19T23:23:25.010Z,97637.09
2022-08-19T23:25:53.774Z,97649.66
2022-08-19T23:28:40.451Z,97659.63
2022-08-19T23:31:08.307Z,97667.31
2022-08-19T23:33:46.623Z,97669.97
2022-08-19T23:36:19.068Z,97661.66
2022-08-19T23:38:48.275Z,97667.34
2022-08-19T23:41:16.458Z,97649.75
2022-08-19T23:43:44.617Z,97653.69
2022-08-19T23:46:13.670Z,97658.38
2022-08-19T23:48:40.697Z,97666.09
2022-08-19T23:51:09.996Z,97645.50
2022-08-19T23:53:38.416Z,97638.50
2022-08-19T23:56:07.398Z,97638.06
2022-08-19T23:58:35.832Z,97622.84
